Time;durP1;ratioP1;P1;durP2;ratioP2;P2;SDS_P1;SDS_P2;PMS_P1;PMS_P2;Temp;Humidity;BMP_temperature;BMP_pressure;BME280_temperature;BME280_humidity;BME280_pressure;Samples;Min_cycle;Max_cycle;Signal;HPM_P1;HPM_P2
2023/05/20 00:02:01;;;;;;;11.50;6.77;;;;;;;41.84;38.09;101072.50;5014048;28;20185;-86
2023/05/20 00:04:27;;;;;;;21.97;6.07;;;;;;;41.91;37.95;101072.78;5012539;28;20177;-87
2023/05/20 00:06:53;;;;;;;14.37;5.30;;;;;;;41.92;37.16;101073.59;5013888;28;20547;-88
2023/05/20 00:09:19;;;;;;;14.10;6.03;;;;;;;42.03;37.50;101070.16;5014967;28;20731;-86
2023/05/20 00:11:46;;;;;;;17.10;5.70;;;;;;;41.85;37.33;101058.56;5016141;28;20424;-84
2023/05/20 00:14:11;;;;;;;15.03;7.60;;;;;;;41.81;37.67;101063.06;4997749;28;20445;-85
2023/05/20 00:16:37;;;;;;;18.60;5.87;;;;;;;41.89;37.33;101064.16;5013879;28;20421;-84
2023/05/20 00:19:03;;;;;;;15.97;4.43;;;;;;;41.87;37.38;101069.16;4997650;28;20543;-86
2023/05/20 00:21:30;;;;;;;22.43;6.20;;;;;;;41.76;37.32;101049.63;5013354;28;20432;-84
2023/05/20 00:23:56;;;;;;;14.70;5.53;;;;;;;41.79;37.03;101064.53;5002273;28;20184;-85
2023/05/20 00:26:22;;;;;;;13.03;6.20;;;;;;;41.76;37.18;101068.72;5013572;28;20460;-85
2023/05/20 00:28:47;;;;;;;13.33;3.97;;;;;;;41.96;37.23;101061.69;5017180;28;20438;-85
2023/05/20 00:31:13;;;;;;;13.37;5.70;;;;;;;41.94;36.74;101060.44;5013487;28;20781;-85
2023/05/20 00:33:40;;;;;;;13.00;5.77;;;;;;;41.86;37.18;101062.06;5013175;28;20948;-86
2023/05/20 00:36:06;;;;;;;16.47;5.30;;;;;;;41.80;37.28;101066.09;5014638;28;20177;-85
2023/05/20 00:38:33;;;;;;;11.20;4.17;;;;;;;41.93;36.82;101059.66;5021512;28;20950;-85
2023/05/20 00:40:59;;;;;;;16.00;6.43;;;;;;;41.97;37.13;101051.59;5013520;28;20511;-85
2023/05/20 00:43:25;;;;;;;14.23;5.17;;;;;;;41.79;37.71;101043.53;5013895;28;20444;-87
2023/05/20 00:45:53;;;;;;;12.67;6.37;;;;;;;41.91;37.14;101047.47;5014602;28;20463;-87
2023/05/20 00:48:20;;;;;;;16.70;4.90;;;;;;;41.80;37.73;101042.38;5013491;28;20795;-84
2023/05/20 00:50:47;;;;;;;10.40;5.63;;;;;;;41.94;37.57;101035.91;5013136;28;20511;-85
2023/05/20 00:53:16;;;;;;;14.40;6.20;;;;;;;41.88;37.39;101024.41;5016349;28;20478;-85
2023/05/20 00:55:42;;;;;;;10.53;5.63;;;;;;;41.83;37.55;101019.16;5016495;28;20411;-85
2023/05/20 00:58:08;;;;;;;20.97;5.37;;;;;;;41.87;37.39;101017.38;5015574;28;20442;-85
2023/05/20 01:00:34;;;;;;;16.07;6.10;;;;;;;41.76;36.90;101014.22;5016544;28;20510;-85
2023/05/20 01:03:00;;;;;;;12.37;5.67;;;;;;;41.72;37.18;101009.72;5016091;28;21018;-85
2023/05/20 01:05:26;;;;;;;14.50;5.60;;;;;;;41.70;37.33;101020.97;5016064;28;20463;-85
2023/05/20 01:07:52;;;;;;;15.33;5.43;;;;;;;41.70;36.53;101012.00;5017811;28;20447;-86
2023/05/20 01:10:18;;;;;;;14.17;5.60;;;;;;;41.73;36.72;101023.00;5020559;28;20429;-85
2023/05/20 01:12:50;;;;;;;22.53;6.27;;;;;;;41.79;36.71;101020.94;5016415;28;20408;-84
2023/05/20 01:15:18;;;;;;;13.27;5.63;;;;;;;41.85;36.82;101014.97;5015595;28;20419;-85
2023/05/20 01:17:46;;;;;;;11.83;4.83;;;;;;;41.85;37.17;101022.34;5016305;28;20424;-85
2023/05/20 01:20:13;;;;;;;17.83;7.37;;;;;;;41.83;36.87;101021.88;5016129;28;20418;-85
2023/05/20 01:22:52;;;;;;;20.23;6.30;;;;;;;41.80;36.97;101017.06;5016503;28;20458;-85
2023/05/20 01:25:18;;;;;;;19.80;6.20;;;;;;;41.90;36.93;101011.25;5016375;28;20466;-87
2023/05/20 01:27:45;;;;;;;17.43;5.90;;;;;;;41.86;36.98;101002.94;5015664;28;20566;-87
2023/05/20 01:30:12;;;;;;;14.63;5.00;;;;;;;41.79;37.21;100990.97;5016916;28;20428;-84
2023/05/20 01:32:43;;;;;;;20.37;6.13;;;;;;;41.82;37.28;100982.16;5033851;28;20912;-85
2023/05/20 01:35:09;;;;;;;14.50;5.77;;;;;;;41.93;37.30;100983.34;5015475;28;20427;-85
2023/05/20 01:37:39;;;;;;;16.40;4.90;;;;;;;41.73;36.94;100976.69;5015898;28;20439;-84
2023/05/20 01:40:08;;;;;;;13.53;4.97;;;;;;;41.86;36.76;100972.16;5006264;28;20416;-85
2023/05/20 01:42:35;;;;;;;13.17;4.70;;;;;;;41.90;36.49;100972.31;5033004;28;20428;-85
2023/05/20 01:45:02;;;;;;;11.40;4.33;;;;;;;41.88;37.15;100974.56;5015841;28;20503;-86
2023/05/20 01:47:28;;;;;;;13.00;6.20;;;;;;;41.70;37.40;100974.66;5015760;28;20531;-87
2023/05/20 01:49:54;;;;;;;20.40;7.60;;;;;;;41.71;37.63;100970.00;5015885;28;20498;-85
2023/05/20 01:52:21;;;;;;;13.97;4.50;;;;;;;41.91;36.85;100974.69;5015158;28;20415;-86
2023/05/20 01:54:49;;;;;;;14.13;5.03;;;;;;;41.71;37.28;100973.53;5025137;28;20221;-85
2023/05/20 01:57:22;;;;;;;16.17;5.60;;;;;;;41.82;37.30;100957.63;5015595;28;20469;-85
2023/05/20 01:59:49;;;;;;;12.33;4.87;;;;;;;41.79;37.59;100961.00;5014816;28;20944;-87
2023/05/20 02:02:15;;;;;;;14.13;5.10;;;;;;;41.89;37.51;100968.00;5014590;28;20431;-85
2023/05/20 02:04:48;;;;;;;10.97;4.00;;;;;;;41.88;37.54;100964.47;5015519;28;20420;-85
2023/05/20 02:07:15;;;;;;;12.33;4.70;;;;;;;41.81;36.32;100970.44;5013264;28;20459;-86
2023/05/20 02:09:41;;;;;;;15.43;5.00;;;;;;;41.83;37.04;100960.00;5012442;28;20416;-85
2023/05/20 02:12:08;;;;;;;11.80;6.10;;;;;;;41.78;37.24;100965.66;5022109;28;20420;-88
2023/05/20 02:14:34;;;;;;;15.40;5.80;;;;;;;41.76;37.53;100954.28;5013832;28;20443;-87
2023/05/20 02:16:59;;;;;;;11.17;5.03;;;;;;;41.51;37.97;100945.13;5013713;28;20424;-88
2023/05/20 02:19:25;;;;;;;11.17;4.87;;;;;;;41.52;38.13;100945.94;5014702;28;20176;-87
2023/05/20 02:21:51;;;;;;;18.67;4.77;;;;;;;41.61;37.44;100931.13;5021131;28;20451;-86
2023/05/20 02:24:19;;;;;;;13.67;4.47;;;;;;;41.63;37.23;100947.16;5015427;28;20192;-84
2023/05/20 02:26:48;;;;;;;13.33;5.40;;;;;;;41.71;36.93;100959.09;5015078;28;21021;-84
2023/05/20 02:29:14;;;;;;;10.30;4.67;;;;;;;41.74;36.89;100948.38;5015105;28;20477;-87
2023/05/20 02:31:40;;;;;;;19.80;4.80;;;;;;;41.55;37.10;100923.47;5019102;28;20420;-87
2023/05/20 02:34:06;;;;;;;18.60;5.47;;;;;;;41.54;37.30;100936.28;5015002;28;20447;-84
2023/05/20 02:36:31;;;;;;;11.70;4.67;;;;;;;41.40;37.91;100933.03;5014980;28;21033;-85
2023/05/20 02:38:59;;;;;;;13.30;5.67;;;;;;;41.47;37.74;100936.00;5004987;28;21023;-85
2023/05/20 02:41:25;;;;;;;11.60;5.03;;;;;;;41.40;37.38;100932.22;5030840;28;20300;-85
2023/05/20 02:43:51;;;;;;;27.27;6.03;;;;;;;41.31;37.71;100932.22;5014850;28;21014;-88
2023/05/20 02:46:18;;;;;;;10.87;5.83;;;;;;;41.30;37.92;100920.53;5014888;28;20890;-88
2023/05/20 02:48:44;;;;;;;7.83;3.90;;;;;;;41.58;37.64;100933.72;5033019;28;20172;-87
2023/05/20 02:51:10;;;;;;;11.80;5.60;;;;;;;41.41;38.05;100928.38;5015216;28;20439;-88
2023/05/20 02:53:36;;;;;;;11.57;4.70;;;;;;;41.44;37.72;100938.63;5020297;28;20531;-87
2023/05/20 02:56:03;;;;;;;12.60;4.63;;;;;;;41.66;37.75;100932.84;5011280;28;20421;-85
2023/05/20 02:58:29;;;;;;;15.23;5.57;;;;;;;41.70;37.51;100935.72;5011515;28;20228;-85
2023/05/20 03:00:56;;;;;;;13.90;6.47;;;;;;;41.69;37.69;100923.25;5012140;28;20431;-86
2023/05/20 03:03:24;;;;;;;11.90;5.40;;;;;;;41.76;37.81;100928.97;5011652;28;20968;-84
2023/05/20 03:05:50;;;;;;;11.97;5.70;;;;;;;41.78;38.02;100927.50;5010413;28;20980;-85
2023/05/20 03:08:19;;;;;;;10.90;4.93;;;;;;;41.81;37.80;100936.97;5027662;28;20431;-85
2023/05/20 03:10:45;;;;;;;14.17;7.47;;;;;;;41.71;38.13;100932.66;5011253;28;20495;-85
2023/05/20 03:13:11;;;;;;;17.93;5.30;;;;;;;41.76;38.43;100935.22;5004358;28;20437;-85
2023/05/20 03:15:44;;;;;;;10.90;5.27;;;;;;;41.49;38.37;100922.84;5010808;28;20447;-86
2023/05/20 03:18:11;;;;;;;9.90;4.70;;;;;;;41.53;38.08;100933.91;4994785;28;20424;-85
2023/05/20 03:20:37;;;;;;;12.97;6.30;;;;;;;41.62;38.04;100942.84;5000896;28;20439;-84
2023/05/20 03:23:07;;;;;;;15.43;5.20;;;;;;;41.74;38.01;100955.72;5014656;28;20427;-85
2023/05/20 03:25:33;;;;;;;11.57;5.30;;;;;;;41.48;37.90;100950.44;5009429;28;20540;-85
2023/05/20 03:27:59;;;;;;;14.07;4.93;;;;;;;41.71;37.66;100967.28;5015059;28;21185;-85
2023/05/20 03:30:28;;;;;;;9.13;4.33;;;;;;;41.69;37.58;100967.63;5014903;28;20413;-87
2023/05/20 03:32:58;;;;;;;11.13;4.73;;;;;;;41.40;37.83;100957.53;5014979;28;20451;-85
2023/05/20 03:35:25;;;;;;;14.20;4.53;;;;;;;41.56;37.62;100953.13;5015060;28;20416;-85
2023/05/20 03:37:52;;;;;;;10.63;4.93;;;;;;;41.76;37.60;100961.69;5014081;28;20816;-87
2023/05/20 03:40:19;;;;;;;10.80;4.60;;;;;;;41.75;37.46;100963.59;5014950;28;20529;-87
2023/05/20 03:42:45;;;;;;;14.63;6.20;;;;;;;41.75;37.91;100971.78;5014644;28;20937;-85
2023/05/20 03:45:12;;;;;;;17.03;8.10;;;;;;;41.34;38.26;100973.25;5014768;28;20478;-85
2023/05/20 03:47:38;;;;;;;14.73;9.03;;;;;;;41.47;38.41;100982.31;5014138;28;20424;-85
2023/05/20 03:50:04;;;;;;;12.00;7.43;;;;;;;41.55;38.34;100980.66;5014790;28;20555;-84
2023/05/20 03:52:30;;;;;;;18.30;7.30;;;;;;;41.58;38.33;100977.28;5015121;28;20423;-85
2023/05/20 03:54:56;;;;;;;15.67;7.50;;;;;;;41.59;38.40;100978.88;5014488;28;20984;-84
2023/05/20 03:57:22;;;;;;;16.07;6.97;;;;;;;41.30;39.07;100974.19;5013934;28;20445;-85
2023/05/20 03:59:48;;;;;;;12.73;6.90;;;;;;;41.50;38.69;100978.16;5014658;28;20502;-87
2023/05/20 04:02:15;;;;;;;15.07;8.30;;;;;;;41.50;38.97;100972.69;5014548;28;20952;-88
2023/05/20 04:04:43;;;;;;;13.70;7.20;;;;;;;41.51;38.96;100975.09;5015799;28;20471;-85
2023/05/20 04:07:10;;;;;;;13.60;9.00;;;;;;;41.45;38.78;100976.41;5015331;28;20476;-85
2023/05/20 04:09:37;;;;;;;20.20;10.07;;;;;;;41.39;38.98;100977.72;5014311;28;20830;-85
2023/05/20 04:12:06;;;;;;;13.23;7.87;;;;;;;41.38;39.35;100965.22;5014238;28;20432;-84
2023/05/20 04:14:33;;;;;;;16.63;8.10;;;;;;;41.31;39.40;100957.53;5015313;28;20556;-86
2023/05/20 04:17:03;;;;;;;25.53;8.03;;;;;;;41.39;39.25;100953.22;5014116;28;20417;-86
2023/05/20 04:19:29;;;;;;;11.60;7.60;;;;;;;41.23;39.30;100955.63;5014211;28;20462;-87
2023/05/20 04:21:55;;;;;;;13.10;6.83;;;;;;;41.29;39.50;100951.59;5013470;28;20444;-88
2023/05/20 04:24:24;;;;;;;14.37;9.03;;;;;;;41.22;39.55;100958.69;5014457;28;20420;-85
2023/05/20 04:26:51;;;;;;;13.63;7.93;;;;;;;41.27;39.59;100961.25;5015166;28;20543;-85
2023/05/20 04:29:18;;;;;;;12.00;8.00;;;;;;;41.27;39.48;100967.47;5014193;28;20482;-87
2023/05/20 04:31:47;;;;;;;15.43;8.50;;;;;;;41.09;39.91;100974.13;5012832;28;20420;-87
2023/05/20 04:34:13;;;;;;;13.73;6.90;;;;;;;41.19;39.42;100960.16;5014023;28;20432;-86
2023/05/20 04:36:39;;;;;;;13.87;6.87;;;;;;;41.11;39.82;100963.69;5013497;28;20452;-86
2023/05/20 04:39:08;;;;;;;19.90;9.60;;;;;;;41.13;39.51;100958.75;5014287;28;20428;-86
2023/05/20 04:41:35;;;;;;;12.70;7.27;;;;;;;40.98;39.81;100962.78;5016897;28;20435;-86
2023/05/20 04:44:02;;;;;;;15.80;8.73;;;;;;;41.13;39.31;100974.25;5013687;28;20432;-85
2023/05/20 04:46:27;;;;;;;15.07;8.47;;;;;;;41.03;39.89;100989.03;5013583;28;20464;-86
2023/05/20 04:48:53;;;;;;;14.83;8.57;;;;;;;40.89;39.78;100961.19;5013732;28;20454;-85
2023/05/20 04:51:19;;;;;;;24.90;12.53;;;;;;;41.01;40.00;100970.31;5015928;28;20365;-86
2023/05/20 04:53:46;;;;;;;23.30;15.57;;;;;;;41.09;39.69;100976.84;5013558;28;20464;-86
2023/05/20 04:56:12;;;;;;;15.80;13.03;;;;;;;41.17;39.62;100981.44;5012937;28;20448;-86
2023/05/20 04:58:38;;;;;;;19.20;10.57;;;;;;;41.17;39.46;100978.72;5013534;28;20462;-85
2023/05/20 05:01:04;;;;;;;14.13;9.03;;;;;;;41.19;39.39;100987.38;5012686;28;20448;-86
2023/05/20 05:03:30;;;;;;;22.80;12.70;;;;;;;41.18;39.45;101002.09;5013386;28;20783;-85
2023/05/20 05:05:57;;;;;;;17.70;11.17;;;;;;;41.18;39.72;101012.97;5013046;28;20475;-87
2023/05/20 05:08:25;;;;;;;14.20;10.13;;;;;;;41.21;39.45;101006.09;5013309;28;20452;-86
2023/05/20 05:10:51;;;;;;;23.13;11.63;;;;;;;41.07;39.53;101017.19;5012887;28;20412;-85
2023/05/20 05:13:17;;;;;;;18.90;9.83;;;;;;;41.15;39.56;101008.19;5015706;28;20455;-85
2023/05/20 05:15:43;;;;;;;19.03;11.03;;;;;;;41.12;39.68;101014.28;5012446;28;20471;-86
2023/05/20 05:18:09;;;;;;;22.00;12.03;;;;;;;41.23;39.54;101026.41;5012831;28;20971;-86
2023/05/20 05:20:36;;;;;;;16.17;10.80;;;;;;;41.21;39.50;101011.53;4996290;28;20487;-86
2023/05/20 05:23:02;;;;;;;18.23;11.87;;;;;;;41.16;39.77;101026.13;5014594;28;20473;-87
2023/05/20 05:25:28;;;;;;;16.17;12.13;;;;;;;41.14;39.35;101017.50;5012898;28;20452;-87
2023/05/20 05:27:54;;;;;;;15.50;10.30;;;;;;;40.94;39.64;101027.13;5012764;28;20425;-89
2023/05/20 05:30:20;;;;;;;17.03;10.13;;;;;;;41.02;39.30;101025.53;5000533;28;20940;-87
2023/05/20 05:32:47;;;;;;;23.53;13.27;;;;;;;41.05;39.50;101025.66;5015279;28;20784;-87
2023/05/20 05:35:13;;;;;;;28.10;12.43;;;;;;;41.05;39.45;101028.38;5012886;28;20466;-87
2023/05/20 05:37:39;;;;;;;20.70;12.10;;;;;;;40.99;39.58;101018.78;5012592;28;20432;-87
2023/05/20 05:40:06;;;;;;;21.33;12.20;;;;;;;41.06;39.48;101024.53;5012593;28;20424;-87
2023/05/20 05:42:33;;;;;;;22.67;12.10;;;;;;;41.11;39.31;101020.84;5015128;28;20951;-85
2023/05/20 05:44:58;;;;;;;20.13;13.43;;;;;;;41.00;39.78;101016.88;5012164;28;20972;-86
2023/05/20 05:47:30;;;;;;;25.93;12.03;;;;;;;41.02;39.32;101020.88;5012624;28;20539;-85
2023/05/20 05:49:56;;;;;;;21.77;12.53;;;;;;;41.05;39.40;101025.66;5012443;28;20416;-86
2023/05/20 05:52:22;;;;;;;20.20;13.60;;;;;;;41.05;39.56;101025.66;5012440;28;20805;-86
2023/05/20 05:54:48;;;;;;;18.93;12.90;;;;;;;41.03;39.54;101040.72;5023244;28;20224;-86
2023/05/20 05:57:14;;;;;;;24.30;12.23;;;;;;;40.99;39.41;101037.03;5037544;28;20223;-84
2023/05/20 05:59:40;;;;;;;22.07;12.40;;;;;;;40.90;39.00;101012.59;5021502;28;20431;-86
2023/05/20 06:02:06;;;;;;;18.73;13.17;;;;;;;41.10;39.03;101032.06;5015771;28;20439;-85
2023/05/20 06:04:32;;;;;;;19.50;12.40;;;;;;;41.05;39.29;101036.53;5015683;28;20424;-85
2023/05/20 06:06:58;;;;;;;17.60;12.30;;;;;;;40.97;39.13;101039.28;5015488;28;20888;-85
2023/05/20 06:09:24;;;;;;;16.33;12.13;;;;;;;41.08;39.22;101041.34;5015407;28;20518;-87
2023/05/20 06:11:49;;;;;;;19.30;13.83;;;;;;;41.06;39.09;101042.78;5028040;28;20477;-86
2023/05/20 06:14:15;;;;;;;24.10;13.73;;;;;;;40.98;39.33;101055.28;5014852;28;20463;-86
2023/05/20 06:16:41;;;;;;;22.80;12.87;;;;;;;41.04;39.43;101058.63;5015155;28;20323;-86
2023/05/20 06:19:08;;;;;;;19.17;13.30;;;;;;;41.05;39.55;101055.59;5002586;28;20330;-86
2023/05/20 06:21:34;;;;;;;25.93;12.67;;;;;;;40.98;39.45;101060.72;5033034;28;20427;-86
2023/05/20 06:24:09;;;;;;;24.63;12.23;;;;;;;41.02;39.52;101055.47;5021805;28;20419;-86
2023/05/20 06:26:35;;;;;;;16.80;11.77;;;;;;;41.02;39.40;101055.47;5007437;28;20460;-86
2023/05/20 06:29:02;;;;;;;20.10;13.70;;;;;;;41.13;39.25;101064.88;5002397;28;20432;-84
2023/05/20 06:31:29;;;;;;;22.57;12.97;;;;;;;40.98;39.40;101058.00;5007354;28;20858;-86
2023/05/20 06:33:55;;;;;;;17.90;12.13;;;;;;;41.10;39.10;101070.16;5019887;28;20990;-85
2023/05/20 06:36:21;;;;;;;24.00;13.40;;;;;;;40.99;39.37;101067.78;5016788;28;20424;-86
2023/05/20 06:38:50;;;;;;;18.80;13.83;;;;;;;41.08;39.05;101084.09;5014762;28;20459;-85
2023/05/20 06:41:16;;;;;;;19.50;12.20;;;;;;;41.03;39.31;101081.53;5013543;28;20422;-86
2023/05/20 06:43:42;;;;;;;25.00;14.07;;;;;;;41.00;39.22;101074.00;5014623;28;20451;-86
2023/05/20 06:46:07;;;;;;;24.63;13.63;;;;;;;41.06;39.30;101076.22;5013941;28;20451;-86
2023/05/20 06:48:33;;;;;;;17.60;13.37;;;;;;;41.11;39.42;101090.81;5014708;28;20443;-87
2023/05/20 06:50:59;;;;;;;23.63;14.80;;;;;;;40.80;39.67;101099.94;5032388;28;20415;-86
2023/05/20 06:53:26;;;;;;;20.43;12.30;;;;;;;40.92;39.41;101097.38;5015383;28;20995;-84
2023/05/20 06:55:55;;;;;;;22.10;13.80;;;;;;;41.10;39.25;101098.16;4997179;28;20424;-87
2023/05/20 06:58:21;;;;;;;29.60;17.63;;;;;;;41.04;39.17;101100.25;4999122;28;20812;-86
2023/05/20 07:00:48;;;;;;;22.00;15.60;;;;;;;41.07;39.72;101101.56;4998819;28;20412;-86
2023/05/20 07:03:13;;;;;;;39.13;15.40;;;;;;;41.11;39.47;101096.25;4998906;28;20519;-84
2023/05/20 07:05:39;;;;;;;22.83;12.00;;;;;;;41.14;39.41;101120.09;4999301;28;20539;-85
2023/05/20 07:08:05;;;;;;;21.27;12.73;;;;;;;41.19;39.27;101126.19;4999099;28;20458;-89
2023/05/20 07:10:31;;;;;;;20.90;11.80;;;;;;;41.28;38.84;101147.94;4998329;28;20932;-85
2023/05/20 07:12:57;;;;;;;13.83;10.50;;;;;;;41.19;39.14;101138.97;4998429;28;20455;-86
2023/05/20 07:15:23;;;;;;;17.80;11.73;;;;;;;41.27;39.23;101146.34;4998822;28;20434;-82
2023/05/20 07:17:49;;;;;;;14.60;9.20;;;;;;;41.37;39.22;101150.66;4998630;28;20424;-86
2023/05/20 07:20:15;;;;;;;17.23;10.80;;;;;;;41.46;38.84;101149.53;4997550;28;20213;-88
2023/05/20 07:22:43;;;;;;;17.10;10.97;;;;;;;41.38;38.96;101163.19;5016509;28;20499;-85
2023/05/20 07:25:09;;;;;;;25.83;11.07;;;;;;;41.42;38.78;101170.34;5007354;28;20429;-87
2023/05/20 07:27:35;;;;;;;18.53;11.37;;;;;;;41.37;39.08;101169.72;5000886;28;20535;-84
2023/05/20 07:30:02;;;;;;;17.70;10.67;;;;;;;41.45;38.60;101158.03;4998030;28;20432;-88
2023/05/20 07:32:28;;;;;;;15.90;9.90;;;;;;;41.44;38.76;101161.88;5003513;28;20467;-88
2023/05/20 07:34:54;;;;;;;16.20;9.97;;;;;;;41.41;38.58;101162.50;5019548;28;20418;-83
2023/05/20 07:37:20;;;;;;;15.43;9.60;;;;;;;41.51;38.63;101164.91;5007380;28;20212;-87
2023/05/20 07:39:45;;;;;;;25.30;11.23;;;;;;;41.48;38.81;101179.16;4989165;28;20347;-86
2023/05/20 07:42:11;;;;;;;13.13;8.37;;;;;;;41.44;38.65;101167.31;4995132;28;20523;-88
2023/05/20 07:44:38;;;;;;;14.80;9.73;;;;;;;41.55;38.45;101182.19;5001629;28;20303;-87
2023/05/20 07:47:04;;;;;;;16.97;9.80;;;;;;;41.65;38.53;101205.56;4998014;28;20462;-87
2023/05/20 07:49:30;;;;;;;19.83;11.70;;;;;;;41.54;38.85;101202.38;5000708;28;20421;-87
2023/05/20 07:51:56;;;;;;;28.23;11.40;;;;;;;41.64;38.53;101198.50;4984916;28;20495;-89
2023/05/20 07:54:22;;;;;;;15.90;10.50;;;;;;;41.57;38.52;101188.13;4999295;28;20475;-89
2023/05/20 07:56:48;;;;;;;17.50;9.27;;;;;;;41.56;38.57;101192.78;5009158;28;20419;-88
2023/05/20 07:59:14;;;;;;;15.97;9.53;;;;;;;41.48;38.64;101211.84;5008727;28;21017;-90
2023/05/20 08:01:41;;;;;;;14.70;10.43;;;;;;;41.64;38.63;101223.81;5011248;28;20424;-92
2023/05/20 08:04:08;;;;;;;11.80;7.90;;;;;;;41.61;38.59;101216.28;5011054;28;20452;-91
2023/05/20 08:06:34;;;;;;;16.03;8.30;;;;;;;41.63;38.38;101208.63;5003759;28;21248;-91
2023/05/20 08:09:00;;;;;;;15.27;10.37;;;;;;;41.65;38.52;101206.34;5012501;28;20797;-92
2023/05/20 08:11:27;;;;;;;12.43;9.20;;;;;;;41.64;38.76;101203.97;5012926;28;20812;-91
2023/05/20 08:13:53;;;;;;;14.87;8.10;;;;;;;41.23;39.03;101173.41;5019117;28;20439;-88
2023/05/20 08:16:22;;;;;;;16.33;8.20;;;;;;;41.47;38.87;101181.06;4995905;28;20425;-89
2023/05/20 08:18:48;;;;;;;11.47;7.87;;;;;;;41.71;38.58;101204.25;5002703;28;20424;-89
2023/05/20 08:21:14;;;;;;;20.40;11.53;;;;;;;41.70;38.42;101208.91;5031819;28;21038;-90
2023/05/20 08:23:40;;;;;;;13.00;8.53;;;;;;;41.58;38.31;101195.97;5017629;28;20420;-91
2023/05/20 08:26:09;;;;;;;17.93;9.17;;;;;;;41.73;38.72;101208.25;5015399;28;20470;-89
2023/05/20 08:28:38;;;;;;;17.10;9.30;;;;;;;41.68;38.48;101194.81;4985680;28;20424;-88
2023/05/20 08:31:05;;;;;;;11.30;7.90;;;;;;;41.86;38.08;101209.19;5014962;28;20591;-91
2023/05/20 08:33:31;;;;;;;23.93;8.63;;;;;;;41.77;38.17;101203.78;5015189;28;20779;-91
2023/05/20 08:35:57;;;;;;;13.13;8.67;;;;;;;41.86;38.23;101220.09;5014266;28;20959;-90
2023/05/20 08:38:42;;;;;;;17.50;16.60;;;;;;;42.01;37.85;101241.38;5015012;28;20423;-90
2023/05/20 08:41:08;;;;;;;32.77;13.63;;;;;;;42.06;38.27;101254.84;5014880;28;20427;-90
2023/05/20 08:43:41;;;;;;;24.67;11.93;;;;;;;42.15;37.62;101260.25;5016198;28;20428;-91
2023/05/20 08:46:10;;;;;;;13.73;9.37;;;;;;;42.12;37.70;101280.78;5017141;28;20988;-89
2023/05/20 08:48:39;;;;;;;19.37;11.00;;;;;;;42.20;37.59;101272.94;5013827;28;20417;-86
2023/05/20 08:51:22;;;;;;;15.53;8.97;;;;;;;42.19;37.56;101285.78;4998090;28;20416;-89
2023/05/20 08:53:53;;;;;;;17.67;9.87;;;;;;;42.19;37.66;101283.03;5000913;28;20551;-87
2023/05/20 08:56:25;;;;;;;17.83;8.77;;;;;;;42.00;37.67;101272.50;5002879;28;20499;-86
2023/05/20 08:58:54;;;;;;;13.87;7.90;;;;;;;42.11;37.48;101283.81;4999197;28;20440;-89
2023/05/20 09:01:24;;;;;;;14.83;7.90;;;;;;;42.05;37.44;101285.13;5018844;28;20448;-89
2023/05/20 09:03:50;;;;;;;15.50;7.63;;;;;;;42.10;37.57;101284.94;5011718;28;20420;-89
2023/05/20 09:06:19;;;;;;;15.47;9.63;;;;;;;42.19;37.33;101302.13;5012916;28;20456;-88
2023/05/20 09:08:45;;;;;;;16.07;8.90;;;;;;;42.13;37.47;101300.66;5000075;28;20444;-87
2023/05/20 09:11:12;;;;;;;14.13;6.47;;;;;;;42.14;37.49;101302.25;5013093;28;20455;-87
2023/05/20 09:13:38;;;;;;;14.10;8.67;;;;;;;41.95;37.82;101264.47;5012766;28;20444;-87
2023/05/20 09:16:06;;;;;;;21.77;9.07;;;;;;;41.99;37.62;101265.44;5020151;28;20535;-85
2023/05/20 09:18:32;;;;;;;18.90;7.60;;;;;;;42.05;37.60;101276.94;4995883;28;20499;-87
2023/05/20 09:21:05;;;;;;;17.10;7.50;;;;;;;42.03;38.12;101295.56;5013629;28;20891;-88
2023/05/20 09:23:32;;;;;;;29.27;9.30;;;;;;;41.79;37.70;101288.72;5013391;28;20421;-88
2023/05/20 09:26:01;;;;;;;38.30;13.30;;;;;;;41.42;38.97;101292.09;5013982;28;21073;-86
2023/05/20 09:28:28;;;;;;;37.03;10.97;;;;;;;41.39;38.78;101269.03;5014655;28;20443;-83
2023/05/20 09:30:58;;;;;;;33.03;10.93;;;;;;;41.53;39.02;101299.59;5012917;28;20841;-88
2023/05/20 09:33:30;;;;;;;20.23;10.33;;;;;;;41.55;38.98;101299.28;5000610;28;20825;-86
2023/05/20 09:36:24;;;;;;;34.27;11.40;;;;;;;41.51;39.36;101317.41;5012751;28;20424;-87
2023/05/20 09:38:54;;;;;;;21.70;8.97;;;;;;;41.60;39.75;101334.53;5013306;28;20972;-87
2023/05/20 09:41:24;;;;;;;18.03;9.70;;;;;;;41.52;39.83;101338.88;5012814;28;20413;-85
2023/05/20 09:43:52;;;;;;;14.40;9.63;;;;;;;41.46;39.83;101347.50;4996069;28;20948;-85
2023/05/20 09:46:19;;;;;;;16.87;8.17;;;;;;;41.51;39.82;101358.25;5011305;28;21090;-82
2023/05/20 09:48:45;;;;;;;18.63;8.77;;;;;;;41.61;39.80;101380.50;5015679;28;20415;-82
2023/05/20 09:51:12;;;;;;;28.90;10.57;;;;;;;41.41;39.90;101370.25;4996165;28;20848;-84
2023/05/20 09:53:38;;;;;;;28.47;10.83;;;;;;;41.15;40.40;101380.25;5012557;28;20428;-83
2023/05/20 09:56:05;;;;;;;24.97;9.97;;;;;;;40.52;39.63;101404.78;5011434;28;20896;-83
2023/05/20 09:58:34;;;;;;;14.43;5.90;;;;;;;40.02;38.23;101385.84;5014794;28;20482;-84
2023/05/20 10:01:00;;;;;;;11.80;5.70;;;;;;;39.45;36.96;101339.31;5028838;28;20434;-82
2023/05/20 10:03:26;;;;;;;15.00;6.33;;;;;;;38.63;38.30;101306.81;5011841;28;20428;-83
2023/05/20 10:06:20;;;;;;;9.80;3.87;;;;;;;38.07;38.48;101303.16;5011663;28;20460;-84
2023/05/20 10:09:28;;;;;;;12.70;3.67;;;;;;;38.29;37.80;101290.88;5011756;28;20996;-83
2023/05/20 10:12:12;;;;;;;12.13;3.20;;;;;;;38.48;36.96;101266.41;5003951;28;20820;-83
2023/05/20 10:14:50;;;;;;;10.93;3.93;;;;;;;38.50;37.39;101259.59;5011937;28;20441;-83
2023/05/20 10:17:33;;;;;;;10.10;3.50;;;;;;;38.23;37.31;101233.25;5012066;28;20451;-83
2023/05/20 10:20:00;;;;;;;8.90;2.90;;;;;;;38.68;36.60;101230.78;5011781;28;20515;-84
2023/05/20 10:22:28;;;;;;;8.37;2.80;;;;;;;38.56;36.10;101208.81;5013462;28;20426;-83
2023/05/20 10:24:59;;;;;;;11.40;4.20;;;;;;;38.80;36.02;101249.28;4995165;28;20424;-83
2023/05/20 10:27:25;;;;;;;7.50;3.30;;;;;;;39.08;35.16;101248.13;5011970;28;20543;-85
2023/05/20 10:29:54;;;;;;;11.17;3.50;;;;;;;39.46;34.53;101264.13;4994288;28;20416;-85
2023/05/20 10:32:28;;;;;;;8.17;3.80;;;;;;;39.51;34.16;101269.44;5012014;28;20424;-84
2023/05/20 10:35:08;;;;;;;9.30;3.10;;;;;;;39.72;33.80;101273.31;5011689;28;20423;-83
2023/05/20 10:37:43;;;;;;;13.10;3.83;;;;;;;39.90;34.50;101276.94;5011847;28;20493;-85
2023/05/20 10:40:20;;;;;;;12.90;4.40;;;;;;;39.99;34.88;101287.84;5011481;28;20430;-85
2023/05/20 10:42:46;;;;;;;9.87;3.40;;;;;;;40.16;34.62;101303.50;5011587;28;20428;-84
2023/05/20 10:45:31;;;;;;;11.20;4.63;;;;;;;39.93;34.55;101262.72;5011903;28;20450;-84
2023/05/20 10:48:02;;;;;;;14.60;5.20;;;;;;;40.11;34.23;101281.88;5011760;28;20531;-83
2023/05/20 10:50:35;;;;;;;13.67;5.53;;;;;;;39.95;34.11;101255.06;5011990;28;20875;-84
2023/05/20 10:53:11;;;;;;;9.80;4.80;;;;;;;40.08;34.10;101272.41;5011340;28;20428;-85
2023/05/20 10:55:39;;;;;;;17.40;5.10;;;;;;;40.14;34.36;101265.72;5007393;28;21012;-86
2023/05/20 10:58:06;;;;;;;14.30;4.43;;;;;;;40.23;34.53;101265.78;4991780;28;20457;-85
2023/05/20 11:00:36;;;;;;;14.07;5.10;;;;;;;40.29;34.87;101273.50;4975140;28;20793;-85
2023/05/20 11:03:03;;;;;;;11.43;4.50;;;;;;;40.23;34.72;101265.78;4991897;28;20464;-86
2023/05/20 11:05:30;;;;;;;15.47;4.63;;;;;;;39.97;34.83;101266.44;5007742;28;20421;-87
2023/05/20 11:08:04;;;;;;;13.83;6.10;;;;;;;40.14;34.68;101283.97;4997416;28;20470;-86
2023/05/20 11:10:30;;;;;;;11.37;5.80;;;;;;;40.12;34.96;101288.91;4990024;28;20425;-88
2023/05/20 11:12:57;;;;;;;17.53;6.80;;;;;;;40.14;34.52;101268.44;4991457;28;20445;-86
2023/05/20 11:15:26;;;;;;;16.17;6.67;;;;;;;40.15;35.07;101278.25;4991488;28;20496;-87
2023/05/20 11:17:55;;;;;;;11.43;6.30;;;;;;;40.17;35.25;101272.47;4994455;28;20832;-86